Portada
METAR-TAF:

METAR-TAF

Aeroports :

Grenchen, Suïssa

latitud: 47-10-53N, longitud: 007-24-59E, altitud: 430 m

Observació

L'informe es va fer fa 39 minuts, a les 16:20 UTC
Vent 3 kt del Oest
Temperatura 9°C
Humitat 81%
Pressió 1020 hPa
Visibilitat 10 km o més
Cel ennuvolat a una alçada de 4400 ft
Cel ennuvolat a una alçada de 4900 ft

METAR: LSZG 071620Z AUTO 26003KT 9999 BKN044 BKN049 09/06 Q1020

Hora: 17:59 (16:59 UTC)

Pronòstic

L'informe es va fer fa 2 hores i 34 minuts, a les 14:25 UTC
Pronòstic vàlid del 07 a les 15 UTC al 07 a les 24 UTC
Vent 9 kt del Oest
Visibilitat 10 km o més
Escasses núvols a una alçada de 3000 ft
Cel ennuvolat a una alçada de 4000 ft
Probabilitat 40%
l' 07 a les 21 UTC al 07 a les 24 UTC
Visibilitat: 4000 m
Cel ennuvolat a una alçada de 1400 ft
boirina

TAF: LSZG 071425Z 0715/0724 27009KT 9999 FEW030 BKN040 PROB40 0721/0724 4000 BR BKN014

Observacions i pronòstics meteorològics de més de 4000 aeroports (METAR i TAF).

Les estacions disponibles són els punts grocs i vermells al mapa.

Posi el ratolí al punt desitjat per veure el nom de l'estació.

Feu clic per veure les observacions i els pronòstics meteorològics.

Per canviar el mapa: feu clic els botons verds amb una creu de color negre per apropar; al botó verd amb un guió per allunyar la imatge; o en les fletxes verdes per a mapes adjacents.


METAR-TAF: